McCook, NE

7:19 AM CDT on April 27, 2017 (GMT -0500)
KNEMCCOO2 | | Change Station
Active Advisory: Frost Advisory

Elev 2609 ft 40.21 °N, 100.64 °W | Updated 6 minutes ago

Mostly Cloudy
Mostly Cloudy
37.2 °F
Feels Like 37 °F
N
0.0
Wind Variable Wind from NNE
Gusts 0.0 mph

Today
High -- | Low -- °F
--% Chance of Precip.
Yesterday
High -- | Low -- °F
Precip. -- in
Pressure 29.69 in
Visibility 10.0 miles
Clouds Mostly Cloudy 9000 ft
Windchill 37 °F
Dew Point 29 °F
Humidity 73%
Rainfall 0.00 in
Snow Depth Not available.
6:46 AM 8:33 PM
New Moon, 2% visible
METAR KMCK 271153Z AUTO 09004KT 10SM BKN090 M01/M02 A2968 RMK AO2 SLP054 T10061017 10017 21017 55005
Pressure 29.69 in
Visibility 10.0 miles
Clouds Mostly Cloudy 9000 ft
Windchill 37 °F
Dew Point 29 °F
Humidity 73%
Rainfall 0.00 in
Snow Depth Not available.
6:46 AM 8:33 PM
New Moon, 2% visible
METAR KMCK 271153Z AUTO 09004KT 10SM BKN090 M01/M02 A2968 RMK AO2 SLP054 T10061017 10017 21017 55005

Get Your Daily Forecast Email!

Thanks for signing up!

Be on the lookout for a verification email in your inbox.

You'll start receiving severe weather alerts in your inbox..

×

10-Day Weather Forecast

Almanac

Astronomy

Apr. 27, 2017 Rise Set
Actual Time
Civil Twilight
Nautical Twilight
Astronomical Twilight
Moon
Length of Visible Light
Length of Day
Tomorrow will be .
, % of the Moon is Illuminated

Today's Extremes

State Highs State Lows

Community

WunderPhotos

WunderBlog® & News

Nearby

Air Quality

  Air Quality AQ Index Pollutant
Not available.

Snow Depth

Station Depth Elevation

Earthquake Activity

City Distance Mag. Time & Date
Minimum magnitude displayed is 2.5.

Coastal Water Temperatures

Place Temperature

Stations

Nearby Weather Stations

Station Location Temp. Windchill Dew Point Humidity Wind Precip. Elev Updated Type
                   

Watches & Warnings

Frost Advisory
Issued: 4:25 PM CDT Apr. 26, 2017 – National Weather Service

... Frost advisory remains in effect from 1 am to 9 am CDT
Thursday...

* temperatures... low temperatures between 33 and 36 degrees.

* Timing/duration... after midnight tonight through early
Thursday morning.

Precautionary/preparedness actions...

A frost advisory is issued when frost is expected to develop
during the growing season. Those with agricultural interests in
the advisory area should consider protecting tender vegetation.
Also... potted plants normally left outdoors should be covered or
brought inside away from the cold.